Willow Springs, IL (60480)

8:32 AM CST en Marzo 05, 2015 (GMT -0600)
Burr Ridge | Change Station
CLOSE
Current Station
Estación meteorológica personal
Location: Burr Ridge, IL
Altura: 692 ft
Estaciones meteorológicas cercanas

Alt 692 ft 41.75 °N, 87.90 °W | Updated 24 seconds ago

Muy nublado
Muy nublado
14.9 ° F
Sensación térmica 9 ° F
N
3.5
Viento Variable Viento desde Este
Gusts 3.5 mph

Hoy
Alta -- | Baja -- ° F
--% Posibilidad de precipitaciones
Ayer
Alta -- | Baja -- ° F
Precip. -- pul
6:20 AM 5:46 PM
Luna llena, 100% visible
Presión 30.51 pul
Visibilidad 10.0 Millas
Nubes Baja 3500 ft
Baja 25000 ft
Vientos helados 9 ° F
Punto de rocío -10 ° F
Humedad 32%
Precipitaciones pul
Espesor de la nieve No disponible.
UV 1 de una escala de 12
Polen .20 de una escala de 12
Calidad del aire No disponible.
Flu Activity No disponible.
METAR KMDW 051353Z 32008KT 10SM FEW035 FEW250 M12/M21 A3044 RMK AO2 SLP330 T11171206

More Conditions Fewer Conditions

Presión 30.51 pul
Visibilidad 10.0 Millas
Nubes Baja 3500 ft
Baja 25000 ft
Vientos helados 9 ° F
Punto de rocío -10 ° F
Humedad 32%
Precipitaciones pul
Espesor de la nieve No disponible.
UV 1 de una escala de 12
Polen .20 de una escala de 12
Calidad del aire No disponible.
Flu Activity No disponible.
METAR KMDW 051353Z 32008KT 10SM FEW035 FEW250 M12/M21 A3044 RMK AO2 SLP330 T11171206

More Conditions Fewer Conditions

10-Day Weather Forecast

Almanac

Astronomía

Mar. 05, 2015 Salida Puesta
Hora real
Crepúsculo civil
Crepúsculo náutico
Crepúsculo astronómico
Luna
Horas de luz
Horas de luz
Tomorrow will be .
, % of the Moon is Illuminated

Extremos de hoy

Máximos del estado Bajos del estado

Community

WunderPhotos

Upload Photos

1,802,782 ¡fotos cargadas!

WunderBlogs® & News

Nearby

Calidad del aire

  Calidad del aire Índice AQ Contaminante
Not available.

Grosos de nieve

Estación Profundido Altura

Actividad de terremotos

Ciudad Distance Mag. Tiempo y dato
Magnitud mínima muestra es 2,5.

Temperaturas de aguas costeras

Lugar Temperatura

Estaciones meteorológicas cercanas